FGAEL TNCC-TFFR
Flight info
| Callsign | FGAEL |
|---|---|
| Flight time | N/A |
| Altitude | 45000 |
| Route | ACORA1K ACORA DCT KIKER DCT ILURI ILURI2Z |
| Aircraft | PC24/M-SBDGIRWY/LB2 |
Departure
| Time | 2026-04-18 11:44 |
|---|---|
| Airport | Hato International Airport (TNCC) |
Arrival
| Time | N/A |
|---|---|
| Airport | Maryse Condé International Airport (TFFR) |
| Time | Latitude | Longitude | Altitude | Speed | Heading |
|---|---|---|---|---|---|
| 2026-04-18 11:06 | 12.18419 | -68.95270 | 24 ft | 0 kts | 284° |
| 2026-04-18 11:40 | 12.18421 | -68.95276 | 24 ft | 4 kts | 284° |
| 2026-04-18 11:41 | 12.18429 | -68.95302 | 26 ft | 3 kts | 308° |
| 2026-04-18 11:41 | 12.18458 | -68.95323 | 24 ft | 8 kts | 324° |
| 2026-04-18 11:41 | 12.18502 | -68.95390 | 24 ft | 12 kts | 283° |
| 2026-04-18 11:41 | 12.18542 | -68.95463 | 24 ft | 12 kts | 318° |
| 2026-04-18 11:42 | 12.18617 | -68.95537 | 23 ft | 22 kts | 294° |
| 2026-04-18 11:42 | 12.18657 | -68.95744 | 23 ft | 34 kts | 282° |
| 2026-04-18 11:42 | 12.18702 | -68.95971 | 23 ft | 31 kts | 281° |
| 2026-04-18 11:42 | 12.18744 | -68.96181 | 25 ft | 29 kts | 284° |
| 2026-04-18 11:43 | 12.18787 | -68.96375 | 25 ft | 27 kts | 283° |
| 2026-04-18 11:43 | 12.18829 | -68.96555 | 25 ft | 25 kts | 282° |
| 2026-04-18 11:43 | 12.18863 | -68.96724 | 22 ft | 23 kts | 283° |
| 2026-04-18 11:43 | 12.18964 | -68.96810 | 22 ft | 21 kts | 8° |
| 2026-04-18 11:44 | 12.19056 | -68.96735 | 25 ft | 27 kts | 103° |
| 2026-04-18 11:44 | 12.18956 | -68.96278 | 24 ft | 105 kts | 101° |
| 2026-04-18 11:44 | 12.18764 | -68.95353 | 352 ft | 148 kts | 105° |
| 2026-04-18 11:44 | 12.18476 | -68.94308 | 1201 ft | 165 kts | 103° |
| 2026-04-18 11:45 | 12.18261 | -68.93040 | 1930 ft | 192 kts | 99° |
| 2026-04-18 11:45 | 12.18154 | -68.91632 | 2813 ft | 209 kts | 78° |
| 2026-04-18 11:45 | 12.18946 | -68.90341 | 3781 ft | 223 kts | 47° |
| 2026-04-18 11:45 | 12.20147 | -68.89258 | 4676 ft | 241 kts | 41° |
| 2026-04-18 11:46 | 12.21457 | -68.88096 | 5455 ft | 257 kts | 44° |
| 2026-04-18 11:46 | 12.22798 | -68.86826 | 6302 ft | 268 kts | 45° |
| 2026-04-18 11:46 | 12.24165 | -68.85509 | 7135 ft | 278 kts | 44° |
| 2026-04-18 11:46 | 12.25597 | -68.84151 | 8029 ft | 283 kts | 43° |
| 2026-04-18 11:47 | 12.27036 | -68.82789 | 8912 ft | 281 kts | 42° |
| 2026-04-18 11:47 | 12.28467 | -68.81428 | 9781 ft | 281 kts | 41° |
| 2026-04-18 11:47 | 12.29897 | -68.80068 | 10544 ft | 280 kts | 40° |
| 2026-04-18 11:47 | 12.31326 | -68.78711 | 11317 ft | 280 kts | 40° |
| 2026-04-18 11:48 | 12.32754 | -68.77356 | 12084 ft | 280 kts | 41° |
| 2026-04-18 11:48 | 12.34183 | -68.75999 | 12868 ft | 280 kts | 40° |
| 2026-04-18 11:48 | 12.35614 | -68.74642 | 13638 ft | 281 kts | 38° |
| 2026-04-18 11:48 | 12.37055 | -68.73289 | 14322 ft | 282 kts | 39° |
| 2026-04-18 11:49 | 12.38491 | -68.71926 | 15020 ft | 282 kts | 39° |
| 2026-04-18 11:49 | 12.39922 | -68.70555 | 15712 ft | 282 kts | 39° |
| 2026-04-18 11:49 | 12.41353 | -68.69191 | 16419 ft | 281 kts | 39° |
| 2026-04-18 11:49 | 12.42782 | -68.67834 | 17128 ft | 280 kts | 38° |
| 2026-04-18 11:50 | 12.44205 | -68.66479 | 17823 ft | 279 kts | 39° |
| 2026-04-18 11:50 | 12.45622 | -68.65129 | 18484 ft | 278 kts | 38° |
| 2026-04-18 11:50 | 12.47034 | -68.63786 | 19073 ft | 277 kts | 39° |
| 2026-04-18 11:50 | 12.48442 | -68.62445 | 19672 ft | 276 kts | 39° |
| 2026-04-18 11:51 | 12.49843 | -68.61109 | 20268 ft | 275 kts | 38° |
| 2026-04-18 11:51 | 12.51263 | -68.59759 | 20628 ft | 285 kts | 38° |
| 2026-04-18 11:51 | 12.52740 | -68.58355 | 20965 ft | 295 kts | 38° |
| 2026-04-18 11:51 | 12.54262 | -68.56905 | 21341 ft | 302 kts | 38° |
| 2026-04-18 11:52 | 12.55816 | -68.55423 | 21750 ft | 308 kts | 38° |
| 2026-04-18 11:52 | 12.57398 | -68.53914 | 22175 ft | 313 kts | 38° |
| 2026-04-18 11:52 | 12.59001 | -68.52387 | 22623 ft | 317 kts | 38° |
| 2026-04-18 11:52 | 12.60622 | -68.50843 | 23084 ft | 320 kts | 38° |
| 2026-04-18 11:53 | 12.62256 | -68.49284 | 23547 ft | 322 kts | 38° |
| 2026-04-18 11:53 | 12.63905 | -68.47711 | 23936 ft | 325 kts | 38° |
| 2026-04-18 11:53 | 12.65564 | -68.46127 | 24327 ft | 327 kts | 38° |
| 2026-04-18 11:53 | 12.67208 | -68.44559 | 24716 ft | 328 kts | 38° |
| 2026-04-18 11:54 | 12.68882 | -68.42961 | 25112 ft | 330 kts | 38° |
| 2026-04-18 11:54 | 12.70571 | -68.41348 | 25514 ft | 332 kts | 38° |
| 2026-04-18 11:54 | 12.72270 | -68.39727 | 25922 ft | 334 kts | 38° |
| 2026-04-18 11:54 | 12.73974 | -68.38098 | 26331 ft | 336 kts | 38° |
| 2026-04-18 11:55 | 12.75690 | -68.36460 | 26741 ft | 338 kts | 38° |
| 2026-04-18 11:55 | 12.77423 | -68.34806 | 26960 ft | 348 kts | 38° |
| 2026-04-18 11:55 | 12.79227 | -68.33069 | 26935 ft | 364 kts | 42° |
| 2026-04-18 11:55 | 12.80724 | -68.30894 | 26925 ft | 383 kts | 57° |
| 2026-04-18 11:56 | 12.81827 | -68.28356 | 26925 ft | 398 kts | 68° |
| 2026-04-18 11:56 | 12.82503 | -68.25565 | 26921 ft | 411 kts | 78° |
| 2026-04-18 11:56 | 12.82765 | -68.22581 | 26366 ft | 435 kts | 87° |
| 2026-04-18 11:56 | 12.82593 | -68.19431 | 25456 ft | 445 kts | 96° |
| 2026-04-18 11:57 | 12.81960 | -68.16351 | 24577 ft | 438 kts | 105° |
| 2026-04-18 11:57 | 12.80640 | -68.13592 | 23616 ft | 429 kts | 126° |
| 2026-04-18 11:57 | 12.78513 | -68.11533 | 22517 ft | 416 kts | 147° |
| 2026-04-18 11:57 | 12.75949 | -68.10287 | 21551 ft | 401 kts | 160° |
| 2026-04-18 11:58 | 12.73336 | -68.09417 | 20712 ft | 390 kts | 163° |
| 2026-04-18 11:58 | 12.70776 | -68.08688 | 19935 ft | 385 kts | 165° |
| 2026-04-18 11:58 | 12.68192 | -68.07999 | 19182 ft | 382 kts | 166° |
| 2026-04-18 11:58 | 12.65625 | -68.07325 | 18461 ft | 379 kts | 165° |
| 2026-04-18 11:59 | 12.63078 | -68.06661 | 17686 ft | 375 kts | 165° |
| 2026-04-18 11:59 | 12.60520 | -68.06349 | 16721 ft | 370 kts | 184° |
| 2026-04-18 11:59 | 12.58104 | -68.07078 | 15696 ft | 358 kts | 208° |
| 2026-04-18 11:59 | 12.56268 | -68.08702 | 14738 ft | 344 kts | 232° |